sensor_id;sensor_type;location;lat;lon;timestamp;pressure;altitude;pressure_sealevel;temperature;humidity
56681;BME280;42558;52.388;13.390;2022-09-27T00:01:07;99249.61;;;11.03;84.52
56681;BME280;42558;52.388;13.390;2022-09-27T00:03:35;99242.71;;;11.07;84.02
56681;BME280;42558;52.388;13.390;2022-09-27T00:06:25;99235.30;;;11.08;83.85
56681;BME280;42558;52.388;13.390;2022-09-27T00:08:53;99231.23;;;11.09;83.60
56681;BME280;42558;52.388;13.390;2022-09-27T00:13:56;99223.23;;;11.04;84.43
56681;BME280;42558;52.388;13.390;2022-09-27T00:16:32;99223.05;;;11.03;84.43
56681;BME280;42558;52.388;13.390;2022-09-27T00:19:03;99218.01;;;11.00;84.38
56681;BME280;42558;52.388;13.390;2022-09-27T00:21:31;99210.79;;;11.00;84.33
56681;BME280;42558;52.388;13.390;2022-09-27T00:23:58;99211.70;;;10.98;84.56
56681;BME280;42558;52.388;13.390;2022-09-27T00:26:25;99209.26;;;10.96;84.88
56681;BME280;42558;52.388;13.390;2022-09-27T00:28:53;99210.31;;;10.96;84.62
56681;BME280;42558;52.388;13.390;2022-09-27T00:31:28;99207.50;;;10.96;84.58
56681;BME280;42558;52.388;13.390;2022-09-27T00:33:59;99205.95;;;10.93;84.64
56681;BME280;42558;52.388;13.390;2022-09-27T00:36:28;99205.11;;;10.91;84.80
56681;BME280;42558;52.388;13.390;2022-09-27T00:38:56;99202.62;;;10.93;84.17
56681;BME280;42558;52.388;13.390;2022-09-27T00:41:33;99198.17;;;10.98;83.93
56681;BME280;42558;52.388;13.390;2022-09-27T00:49:38;99184.06;;;10.87;84.66
56681;BME280;42558;52.388;13.390;2022-09-27T00:52:15;99177.81;;;10.94;83.87
56681;BME280;42558;52.388;13.390;2022-09-27T00:54:48;99177.43;;;10.97;83.41
56681;BME280;42558;52.388;13.390;2022-09-27T00:57:18;99174.66;;;10.93;84.01
56681;BME280;42558;52.388;13.390;2022-09-27T01:00:13;99170.30;;;10.91;84.38
56681;BME280;42558;52.388;13.390;2022-09-27T01:02:49;99167.11;;;10.93;84.11
56681;BME280;42558;52.388;13.390;2022-09-27T01:05:21;99161.29;;;10.94;84.00
56681;BME280;42558;52.388;13.390;2022-09-27T01:07:49;99158.84;;;10.93;84.21
56681;BME280;42558;52.388;13.390;2022-09-27T01:10:18;99159.10;;;10.99;83.20
56681;BME280;42558;52.388;13.390;2022-09-27T01:13:09;99152.76;;;11.00;83.35
56681;BME280;42558;52.388;13.390;2022-09-27T01:15:57;99151.71;;;11.00;83.12
56681;BME280;42558;52.388;13.390;2022-09-27T01:18:44;99144.82;;;11.02;82.85
56681;BME280;42558;52.388;13.390;2022-09-27T01:21:26;99142.91;;;11.00;83.22
56681;BME280;42558;52.388;13.390;2022-09-27T01:24:28;99141.17;;;10.99;83.22
56681;BME280;42558;52.388;13.390;2022-09-27T01:27:34;99139.31;;;11.06;82.51
56681;BME280;42558;52.388;13.390;2022-09-27T01:30:31;99133.54;;;11.05;82.69
56681;BME280;42558;52.388;13.390;2022-09-27T01:33:17;99131.92;;;11.06;82.60
56681;BME280;42558;52.388;13.390;2022-09-27T01:36:08;99129.13;;;11.05;82.98
56681;BME280;42558;52.388;13.390;2022-09-27T01:45:32;99119.05;;;11.09;82.40
56681;BME280;42558;52.388;13.390;2022-09-27T01:48:03;99119.66;;;11.14;81.99
56681;BME280;42558;52.388;13.390;2022-09-27T01:50:40;99114.04;;;11.14;82.14
56681;BME280;42558;52.388;13.390;2022-09-27T01:53:20;99110.36;;;11.13;82.54
56681;BME280;42558;52.388;13.390;2022-09-27T01:55:51;99103.86;;;11.12;82.54
56681;BME280;42558;52.388;13.390;2022-09-27T01:58:28;99100.16;;;11.13;82.06
56681;BME280;42558;52.388;13.390;2022-09-27T02:00:59;99095.73;;;11.14;82.38
56681;BME280;42558;52.388;13.390;2022-09-27T02:03:33;99090.60;;;11.17;81.78
56681;BME280;42558;52.388;13.390;2022-09-27T02:06:10;99087.59;;;11.18;81.61
56681;BME280;42558;52.388;13.390;2022-09-27T02:08:51;99085.11;;;11.20;81.67
56681;BME280;42558;52.388;13.390;2022-09-27T02:11:20;99075.56;;;11.23;81.32
56681;BME280;42558;52.388;13.390;2022-09-27T02:14:07;99075.23;;;11.21;81.82
56681;BME280;42558;52.388;13.390;2022-09-27T02:17:06;99074.73;;;11.20;82.01
56681;BME280;42558;52.388;13.390;2022-09-27T02:19:49;99069.05;;;11.23;81.60
56681;BME280;42558;52.388;13.390;2022-09-27T02:22:44;99063.59;;;11.24;81.52
56681;BME280;42558;52.388;13.390;2022-09-27T02:25:24;99055.65;;;11.25;81.64
56681;BME280;42558;52.388;13.390;2022-09-27T02:28:33;99059.67;;;11.26;81.67
56681;BME280;42558;52.388;13.390;2022-09-27T02:31:03;99051.88;;;11.29;81.26
56681;BME280;42558;52.388;13.390;2022-09-27T02:33:51;99052.23;;;11.28;81.58
56681;BME280;42558;52.388;13.390;2022-09-27T02:36:20;99047.77;;;11.23;82.70
56681;BME280;42558;52.388;13.390;2022-09-27T02:38:47;99044.23;;;11.23;82.18
56681;BME280;42558;52.388;13.390;2022-09-27T02:41:17;99042.77;;;11.27;81.98
56681;BME280;42558;52.388;13.390;2022-09-27T02:43:49;99039.95;;;11.27;81.96
56681;BME280;42558;52.388;13.390;2022-09-27T02:56:02;99033.03;;;11.31;81.64
56681;BME280;42558;52.388;13.390;2022-09-27T03:02:12;99028.25;;;11.22;82.37
56681;BME280;42558;52.388;13.390;2022-09-27T03:05:12;99026.31;;;11.22;82.53
56681;BME280;42558;52.388;13.390;2022-09-27T03:07:41;99023.67;;;11.22;82.63
56681;BME280;42558;52.388;13.390;2022-09-27T03:10:16;99021.20;;;11.23;82.21
56681;BME280;42558;52.388;13.390;2022-09-27T03:12:44;99022.42;;;11.24;82.32
56681;BME280;42558;52.388;13.390;2022-09-27T03:15:11;99021.58;;;11.22;82.55
56681;BME280;42558;52.388;13.390;2022-09-27T03:17:38;99024.42;;;11.19;82.65
56681;BME280;42558;52.388;13.390;2022-09-27T03:20:06;99024.09;;;11.18;82.38
56681;BME280;42558;52.388;13.390;2022-09-27T03:22:35;99017.70;;;11.22;82.02
56681;BME280;42558;52.388;13.390;2022-09-27T03:25:04;99017.55;;;11.20;82.23
56681;BME280;42558;52.388;13.390;2022-09-27T03:27:32;99017.73;;;11.20;82.47
56681;BME280;42558;52.388;13.390;2022-09-27T03:29:59;99011.05;;;11.20;82.59
56681;BME280;42558;52.388;13.390;2022-09-27T03:32:26;99005.55;;;11.22;81.96
56681;BME280;42558;52.388;13.390;2022-09-27T03:34:53;99002.48;;;11.27;81.73
56681;BME280;42558;52.388;13.390;2022-09-27T03:37:22;99003.59;;;11.25;82.16
56681;BME280;42558;52.388;13.390;2022-09-27T03:39:49;98999.38;;;11.23;82.66
56681;BME280;42558;52.388;13.390;2022-09-27T03:42:16;99001.20;;;11.19;83.31
56681;BME280;42558;52.388;13.390;2022-09-27T03:44:43;98997.40;;;11.15;83.86
56681;BME280;42558;52.388;13.390;2022-09-27T03:47:10;98997.73;;;11.16;84.08
56681;BME280;42558;52.388;13.390;2022-09-27T03:49:37;98995.45;;;11.17;84.38
56681;BME280;42558;52.388;13.390;2022-09-27T03:52:04;98991.39;;;11.18;84.60
56681;BME280;42558;52.388;13.390;2022-09-27T03:54:30;98991.04;;;11.18;85.22
56681;BME280;42558;52.388;13.390;2022-09-27T03:56:58;98991.48;;;11.13;86.51
56681;BME280;42558;52.388;13.390;2022-09-27T03:59:24;98988.92;;;11.07;87.25
56681;BME280;42558;52.388;13.390;2022-09-27T04:01:51;98985.65;;;11.03;87.46
56681;BME280;42558;52.388;13.390;2022-09-27T04:04:18;98982.95;;;10.97;88.46
56681;BME280;42558;52.388;13.390;2022-09-27T04:06:44;98981.17;;;10.98;88.30
56681;BME280;42558;52.388;13.390;2022-09-27T04:09:11;98979.30;;;10.94;89.05
56681;BME280;42558;52.388;13.390;2022-09-27T04:11:38;98973.77;;;10.89;90.12
56681;BME280;42558;52.388;13.390;2022-09-27T04:14:05;98972.78;;;10.85;90.78
56681;BME280;42558;52.388;13.390;2022-09-27T04:16:31;98973.15;;;10.83;91.52
56681;BME280;42558;52.388;13.390;2022-09-27T04:18:59;98973.67;;;10.83;91.07
56681;BME280;42558;52.388;13.390;2022-09-27T04:21:28;98973.67;;;10.83;91.33
56681;BME280;42558;52.388;13.390;2022-09-27T04:23:55;98971.73;;;10.85;91.56
56681;BME280;42558;52.388;13.390;2022-09-27T04:26:21;98972.17;;;10.78;92.25
56681;BME280;42558;52.388;13.390;2022-09-27T04:28:48;98972.02;;;10.78;92.12
56681;BME280;42558;52.388;13.390;2022-09-27T04:31:20;98971.40;;;10.72;93.23
56681;BME280;42558;52.388;13.390;2022-09-27T04:33:47;98971.65;;;10.67;94.46
56681;BME280;42558;52.388;13.390;2022-09-27T04:36:18;98966.27;;;10.62;94.67
56681;BME280;42558;52.388;13.390;2022-09-27T04:38:58;98968.30;;;10.56;95.57
56681;BME280;42558;52.388;13.390;2022-09-27T04:41:27;98970.15;;;10.51;97.04
56681;BME280;42558;52.388;13.390;2022-09-27T04:43:55;98970.55;;;10.47;97.66
56681;BME280;42558;52.388;13.390;2022-09-27T04:46:26;98967.80;;;10.43;98.54
56681;BME280;42558;52.388;13.390;2022-09-27T04:48:59;98969.29;;;10.39;99.30
56681;BME280;42558;52.388;13.390;2022-09-27T04:51:26;98969.30;;;10.36;100.00
56681;BME280;42558;52.388;13.390;2022-09-27T04:53:56;98973.29;;;10.28;100.00
56681;BME280;42558;52.388;13.390;2022-09-27T04:56:23;98973.02;;;10.22;100.00
56681;BME280;42558;52.388;13.390;2022-09-27T04:58:50;98974.05;;;10.21;100.00
56681;BME280;42558;52.388;13.390;2022-09-27T05:01:17;98974.23;;;10.23;100.00
56681;BME280;42558;52.388;13.390;2022-09-27T05:03:44;98971.29;;;10.19;100.00
56681;BME280;42558;52.388;13.390;2022-09-27T05:06:11;98973.98;;;10.14;100.00
56681;BME280;42558;52.388;13.390;2022-09-27T05:08:38;98974.02;;;10.11;100.00
56681;BME280;42558;52.388;13.390;2022-09-27T05:11:05;98968.93;;;10.10;100.00
56681;BME280;42558;52.388;13.390;2022-09-27T05:13:31;98969.52;;;10.06;100.00
56681;BME280;42558;52.388;13.390;2022-09-27T05:16:03;98971.67;;;10.02;100.00
56681;BME280;42558;52.388;13.390;2022-09-27T05:18:30;98970.97;;;10.02;100.00
56681;BME280;42558;52.388;13.390;2022-09-27T05:20:57;98970.16;;;9.98;100.00
56681;BME280;42558;52.388;13.390;2022-09-27T05:23:25;98969.77;;;10.00;100.00
56681;BME280;42558;52.388;13.390;2022-09-27T05:25:52;98966.63;;;9.99;100.00
56681;BME280;42558;52.388;13.390;2022-09-27T05:28:22;98969.86;;;9.93;100.00
56681;BME280;42558;52.388;13.390;2022-09-27T05:30:49;98972.20;;;9.89;100.00
56681;BME280;42558;52.388;13.390;2022-09-27T05:33:16;98970.49;;;9.85;100.00
56681;BME280;42558;52.388;13.390;2022-09-27T05:35:51;98972.44;;;9.83;100.00
56681;BME280;42558;52.388;13.390;2022-09-27T05:38:18;98971.73;;;9.85;100.00
56681;BME280;42558;52.388;13.390;2022-09-27T05:40:45;98971.34;;;9.87;100.00
56681;BME280;42558;52.388;13.390;2022-09-27T05:43:13;98968.70;;;9.87;100.00
56681;BME280;42558;52.388;13.390;2022-09-27T05:45:41;98970.61;;;9.89;100.00
56681;BME280;42558;52.388;13.390;2022-09-27T05:48:10;98970.80;;;9.88;100.00
56681;BME280;42558;52.388;13.390;2022-09-27T05:50:38;98970.69;;;9.84;100.00
56681;BME280;42558;52.388;13.390;2022-09-27T05:53:05;98970.83;;;9.85;100.00
56681;BME280;42558;52.388;13.390;2022-09-27T05:55:32;98969.25;;;9.86;100.00
56681;BME280;42558;52.388;13.390;2022-09-27T05:58:05;98969.48;;;9.82;100.00
56681;BME280;42558;52.388;13.390;2022-09-27T06:00:34;98968.75;;;9.84;100.00
56681;BME280;42558;52.388;13.390;2022-09-27T06:03:05;98966.29;;;9.85;100.00
56681;BME280;42558;52.388;13.390;2022-09-27T06:05:36;98963.67;;;9.84;100.00
56681;BME280;42558;52.388;13.390;2022-09-27T06:08:09;98967.51;;;9.86;100.00
56681;BME280;42558;52.388;13.390;2022-09-27T06:10:39;98968.53;;;9.86;100.00
56681;BME280;42558;52.388;13.390;2022-09-27T06:13:10;98968.52;;;9.90;100.00
56681;BME280;42558;52.388;13.390;2022-09-27T06:15:40;98966.83;;;9.84;100.00
56681;BME280;42558;52.388;13.390;2022-09-27T06:18:11;98964.39;;;9.82;100.00
56681;BME280;42558;52.388;13.390;2022-09-27T06:20:39;98963.45;;;9.86;100.00
56681;BME280;42558;52.388;13.390;2022-09-27T06:23:15;98960.77;;;9.89;100.00
56681;BME280;42558;52.388;13.390;2022-09-27T06:25:44;98965.69;;;9.90;100.00
56681;BME280;42558;52.388;13.390;2022-09-27T06:28:12;98964.27;;;9.92;100.00
56681;BME280;42558;52.388;13.390;2022-09-27T06:30:43;98958.14;;;9.91;100.00
56681;BME280;42558;52.388;13.390;2022-09-27T06:33:16;98963.17;;;9.94;100.00
56681;BME280;42558;52.388;13.390;2022-09-27T06:35:43;98963.91;;;9.92;100.00
56681;BME280;42558;52.388;13.390;2022-09-27T06:38:14;98961.20;;;9.98;100.00
56681;BME280;42558;52.388;13.390;2022-09-27T06:40:42;98960.98;;;10.00;100.00
56681;BME280;42558;52.388;13.390;2022-09-27T06:43:17;98965.07;;;9.97;100.00
56681;BME280;42558;52.388;13.390;2022-09-27T06:45:46;98967.41;;;9.93;100.00
56681;BME280;42558;52.388;13.390;2022-09-27T06:48:14;98968.12;;;9.93;100.00
56681;BME280;42558;52.388;13.390;2022-09-27T06:50:45;98967.55;;;9.94;100.00
56681;BME280;42558;52.388;13.390;2022-09-27T06:53:15;98965.66;;;9.93;100.00
56681;BME280;42558;52.388;13.390;2022-09-27T06:55:42;98966.60;;;10.01;100.00
56681;BME280;42558;52.388;13.390;2022-09-27T06:58:10;98965.36;;;10.02;100.00
56681;BME280;42558;52.388;13.390;2022-09-27T07:00:56;98965.27;;;9.95;100.00
56681;BME280;42558;52.388;13.390;2022-09-27T07:03:25;98969.04;;;9.89;100.00
56681;BME280;42558;52.388;13.390;2022-09-27T07:06:05;98971.02;;;9.98;100.00
56681;BME280;42558;52.388;13.390;2022-09-27T07:08:32;98967.08;;;9.92;100.00
56681;BME280;42558;52.388;13.390;2022-09-27T07:11:05;98966.46;;;9.97;100.00
56681;BME280;42558;52.388;13.390;2022-09-27T07:13:33;98968.15;;;10.04;100.00
56681;BME280;42558;52.388;13.390;2022-09-27T07:16:05;98972.16;;;10.05;100.00
56681;BME280;42558;52.388;13.390;2022-09-27T07:18:33;98971.66;;;10.03;100.00
56681;BME280;42558;52.388;13.390;2022-09-27T07:20:59;98972.11;;;10.09;100.00
56681;BME280;42558;52.388;13.390;2022-09-27T07:23:27;98976.95;;;10.02;100.00
56681;BME280;42558;52.388;13.390;2022-09-27T07:25:54;98975.90;;;10.01;100.00
56681;BME280;42558;52.388;13.390;2022-09-27T07:28:21;98971.23;;;10.10;100.00
56681;BME280;42558;52.388;13.390;2022-09-27T07:30:52;98967.83;;;10.14;100.00
56681;BME280;42558;52.388;13.390;2022-09-27T07:33:20;98968.40;;;10.26;100.00
56681;BME280;42558;52.388;13.390;2022-09-27T07:35:46;98971.05;;;10.24;100.00
56681;BME280;42558;52.388;13.390;2022-09-27T07:38:13;98969.65;;;10.08;100.00
56681;BME280;42558;52.388;13.390;2022-09-27T07:40:41;98968.77;;;10.10;100.00
56681;BME280;42558;52.388;13.390;2022-09-27T07:43:08;98969.98;;;10.11;100.00
56681;BME280;42558;52.388;13.390;2022-09-27T07:45:35;98971.70;;;10.14;100.00
56681;BME280;42558;52.388;13.390;2022-09-27T07:48:05;98967.70;;;10.25;100.00
56681;BME280;42558;52.388;13.390;2022-09-27T07:50:33;98973.57;;;10.32;100.00
56681;BME280;42558;52.388;13.390;2022-09-27T07:53:00;98970.68;;;10.26;100.00
56681;BME280;42558;52.388;13.390;2022-09-27T07:55:27;98968.77;;;10.23;100.00
56681;BME280;42558;52.388;13.390;2022-09-27T07:58:06;98971.38;;;10.26;100.00
56681;BME280;42558;52.388;13.390;2022-09-27T08:00:35;98976.36;;;10.21;100.00
56681;BME280;42558;52.388;13.390;2022-09-27T08:03:09;98976.32;;;10.25;100.00
56681;BME280;42558;52.388;13.390;2022-09-27T08:05:37;98979.86;;;10.22;100.00
56681;BME280;42558;52.388;13.390;2022-09-27T08:08:04;98983.10;;;10.30;100.00
56681;BME280;42558;52.388;13.390;2022-09-27T08:10:32;98980.75;;;10.34;100.00
56681;BME280;42558;52.388;13.390;2022-09-27T08:13:04;98983.37;;;10.36;100.00
56681;BME280;42558;52.388;13.390;2022-09-27T08:15:32;98979.77;;;10.30;100.00
56681;BME280;42558;52.388;13.390;2022-09-27T08:18:06;98981.07;;;10.37;100.00
56681;BME280;42558;52.388;13.390;2022-09-27T08:20:35;98977.08;;;10.46;100.00
56681;BME280;42558;52.388;13.390;2022-09-27T08:23:02;98977.61;;;10.46;100.00
56681;BME280;42558;52.388;13.390;2022-09-27T08:25:30;98980.27;;;10.43;100.00
56681;BME280;42558;52.388;13.390;2022-09-27T08:28:00;98980.52;;;10.38;100.00
56681;BME280;42558;52.388;13.390;2022-09-27T08:30:28;98984.25;;;10.36;100.00
56681;BME280;42558;52.388;13.390;2022-09-27T08:33:00;98986.05;;;10.45;100.00
56681;BME280;42558;52.388;13.390;2022-09-27T08:35:31;98986.33;;;10.50;100.00
56681;BME280;42558;52.388;13.390;2022-09-27T08:38:01;98982.04;;;10.66;100.00
56681;BME280;42558;52.388;13.390;2022-09-27T08:40:54;98982.61;;;10.63;100.00
56681;BME280;42558;52.388;13.390;2022-09-27T08:43:35;98987.17;;;10.75;100.00
56681;BME280;42558;52.388;13.390;2022-09-27T08:46:28;98989.52;;;10.82;100.00
56681;BME280;42558;52.388;13.390;2022-09-27T08:49:22;98988.52;;;10.90;100.00
56681;BME280;42558;52.388;13.390;2022-09-27T08:51:54;98991.63;;;11.04;100.00
56681;BME280;42558;52.388;13.390;2022-09-27T08:54:29;98991.76;;;10.85;100.00
56681;BME280;42558;52.388;13.390;2022-09-27T08:57:04;98990.98;;;10.79;100.00
56681;BME280;42558;52.388;13.390;2022-09-27T08:59:39;98993.48;;;10.76;100.00
56681;BME280;42558;52.388;13.390;2022-09-27T09:02:18;98989.25;;;10.78;100.00
56681;BME280;42558;52.388;13.390;2022-09-27T09:04:51;98991.09;;;10.83;100.00
56681;BME280;42558;52.388;13.390;2022-09-27T09:14:01;98988.85;;;11.01;100.00
56681;BME280;42558;52.388;13.390;2022-09-27T09:17:39;98987.30;;;11.10;100.00
56681;BME280;42558;52.388;13.390;2022-09-27T09:20:38;98985.73;;;11.08;100.00
56681;BME280;42558;52.388;13.390;2022-09-27T09:26:12;98980.56;;;11.24;100.00
56681;BME280;42558;52.388;13.390;2022-09-27T09:32:15;98980.33;;;11.26;100.00
56681;BME280;42558;52.388;13.390;2022-09-27T09:35:02;98985.95;;;11.16;100.00
56681;BME280;42558;52.388;13.390;2022-09-27T09:37:42;98989.13;;;11.26;100.00
56681;BME280;42558;52.388;13.390;2022-09-27T09:40:34;98984.20;;;11.26;100.00
56681;BME280;42558;52.388;13.390;2022-09-27T09:43:28;98984.54;;;11.27;100.00
56681;BME280;42558;52.388;13.390;2022-09-27T09:46:09;98985.30;;;11.25;100.00
56681;BME280;42558;52.388;13.390;2022-09-27T09:48:51;98982.92;;;11.29;100.00
56681;BME280;42558;52.388;13.390;2022-09-27T09:51:28;98980.52;;;11.26;100.00
56681;BME280;42558;52.388;13.390;2022-09-27T09:54:23;98975.61;;;11.44;100.00
56681;BME280;42558;52.388;13.390;2022-09-27T09:59:46;98972.75;;;11.55;100.00
56681;BME280;42558;52.388;13.390;2022-09-27T10:02:38;98968.16;;;11.64;100.00
56681;BME280;42558;52.388;13.390;2022-09-27T10:05:06;98969.27;;;11.81;100.00
56681;BME280;42558;52.388;13.390;2022-09-27T10:07:37;98969.05;;;11.93;100.00
56681;BME280;42558;52.388;13.390;2022-09-27T10:10:07;98968.99;;;12.03;100.00
56681;BME280;42558;52.388;13.390;2022-09-27T10:12:36;98967.59;;;11.95;100.00
56681;BME280;42558;52.388;13.390;2022-09-27T10:15:05;98969.33;;;11.77;100.00
56681;BME280;42558;52.388;13.390;2022-09-27T10:17:46;98968.12;;;11.66;100.00
56681;BME280;42558;52.388;13.390;2022-09-27T10:23:10;98967.63;;;11.66;100.00
56681;BME280;42558;52.388;13.390;2022-09-27T10:28:43;98961.78;;;12.03;100.00
56681;BME280;42558;52.388;13.390;2022-09-27T10:31:15;98959.95;;;12.06;100.00
56681;BME280;42558;52.388;13.390;2022-09-27T10:34:03;98958.44;;;12.50;100.00
56681;BME280;42558;52.388;13.390;2022-09-27T10:36:35;98953.23;;;12.91;100.00
56681;BME280;42558;52.388;13.390;2022-09-27T10:39:05;98954.52;;;12.82;99.69
56681;BME280;42558;52.388;13.390;2022-09-27T10:41:40;98949.66;;;13.26;99.95
56681;BME280;42558;52.388;13.390;2022-09-27T10:46:52;98945.71;;;13.80;95.94
56681;BME280;42558;52.388;13.390;2022-09-27T10:49:32;98940.02;;;13.45;94.48
56681;BME280;42558;52.388;13.390;2022-09-27T10:52:04;98939.21;;;13.35;97.12
56681;BME280;42558;52.388;13.390;2022-09-27T10:54:38;98945.74;;;13.28;94.55
56681;BME280;42558;52.388;13.390;2022-09-27T10:57:18;98946.32;;;13.06;94.22
56681;BME280;42558;52.388;13.390;2022-09-27T10:59:59;98943.71;;;13.04;95.07
56681;BME280;42558;52.388;13.390;2022-09-27T11:02:35;98939.36;;;13.16;96.56
56681;BME280;42558;52.388;13.390;2022-09-27T11:07:53;98943.98;;;12.72;96.97
56681;BME280;42558;52.388;13.390;2022-09-27T11:10:32;98946.83;;;12.57;96.40
56681;BME280;42558;52.388;13.390;2022-09-27T11:13:19;98941.48;;;12.66;97.87
56681;BME280;42558;52.388;13.390;2022-09-27T11:16:03;98942.63;;;12.70;97.18
56681;BME280;42558;52.388;13.390;2022-09-27T11:28:14;98944.16;;;13.01;95.43
56681;BME280;42558;52.388;13.390;2022-09-27T11:34:17;98957.23;;;12.71;95.47
56681;BME280;42558;52.388;13.390;2022-09-27T11:37:14;98967.17;;;12.53;99.41
56681;BME280;42558;52.388;13.390;2022-09-27T11:46:09;98984.85;;;10.78;100.00
56681;BME280;42558;52.388;13.390;2022-09-27T11:55:11;99003.30;;;10.42;100.00
56681;BME280;42558;52.388;13.390;2022-09-27T11:57:57;99004.59;;;10.38;100.00
56681;BME280;42558;52.388;13.390;2022-09-27T12:00:54;99006.04;;;10.34;100.00
56681;BME280;42558;52.388;13.390;2022-09-27T12:09:15;99005.66;;;10.37;100.00
56681;BME280;42558;52.388;13.390;2022-09-27T12:12:05;99004.59;;;10.51;100.00
56681;BME280;42558;52.388;13.390;2022-09-27T12:14:46;99003.77;;;10.59;100.00
56681;BME280;42558;52.388;13.390;2022-09-27T12:17:22;99009.94;;;10.69;100.00
56681;BME280;42558;52.388;13.390;2022-09-27T12:20:03;99011.27;;;10.85;100.00
56681;BME280;42558;52.388;13.390;2022-09-27T12:22:47;99008.41;;;11.10;100.00
56681;BME280;42558;52.388;13.390;2022-09-27T12:25:36;99010.00;;;11.20;100.00
56681;BME280;42558;52.388;13.390;2022-09-27T12:31:29;99014.03;;;11.31;100.00
56681;BME280;42558;52.388;13.390;2022-09-27T12:34:29;99017.46;;;11.36;100.00
56681;BME280;42558;52.388;13.390;2022-09-27T12:37:08;99018.20;;;11.23;100.00
56681;BME280;42558;52.388;13.390;2022-09-27T12:39:42;99017.41;;;11.38;100.00
56681;BME280;42558;52.388;13.390;2022-09-27T12:42:24;99016.77;;;11.35;100.00
56681;BME280;42558;52.388;13.390;2022-09-27T12:44:52;99016.80;;;11.43;100.00
56681;BME280;42558;52.388;13.390;2022-09-27T12:50:42;99012.30;;;11.76;100.00
56681;BME280;42558;52.388;13.390;2022-09-27T12:53:19;99015.93;;;11.90;100.00
56681;BME280;42558;52.388;13.390;2022-09-27T13:10:31;99020.35;;;11.80;100.00
56681;BME280;42558;52.388;13.390;2022-09-27T13:13:01;99022.30;;;11.69;100.00
56681;BME280;42558;52.388;13.390;2022-09-27T13:15:34;99029.44;;;11.73;100.00
56681;BME280;42558;52.388;13.390;2022-09-27T13:18:06;99032.77;;;11.54;100.00
56681;BME280;42558;52.388;13.390;2022-09-27T13:20:52;99034.03;;;11.63;100.00
56681;BME280;42558;52.388;13.390;2022-09-27T13:25:50;99019.10;;;11.91;100.00
56681;BME280;42558;52.388;13.390;2022-09-27T13:30:59;99022.19;;;12.12;100.00
56681;BME280;42558;52.388;13.390;2022-09-27T13:33:39;99022.67;;;12.14;100.00
56681;BME280;42558;52.388;13.390;2022-09-27T13:47:46;99034.84;;;11.76;98.51
56681;BME280;42558;52.388;13.390;2022-09-27T13:50:52;99032.85;;;11.69;100.00
56681;BME280;42558;52.388;13.390;2022-09-27T13:53:34;99039.73;;;11.39;100.00
56681;BME280;42558;52.388;13.390;2022-09-27T13:56:03;99046.95;;;11.19;100.00
56681;BME280;42558;52.388;13.390;2022-09-27T13:58:53;99047.44;;;11.22;100.00
56681;BME280;42558;52.388;13.390;2022-09-27T14:01:32;99051.42;;;11.25;100.00
56681;BME280;42558;52.388;13.390;2022-09-27T14:06:48;99057.69;;;11.19;100.00
56681;BME280;42558;52.388;13.390;2022-09-27T14:09:46;99057.90;;;11.27;100.00
56681;BME280;42558;52.388;13.390;2022-09-27T14:12:32;99058.38;;;11.30;100.00
56681;BME280;42558;52.388;13.390;2022-09-27T14:15:03;99063.96;;;11.32;100.00
56681;BME280;42558;52.388;13.390;2022-09-27T14:17:30;99068.40;;;11.30;100.00
56681;BME280;42558;52.388;13.390;2022-09-27T14:19:58;99071.22;;;11.30;100.00
56681;BME280;42558;52.388;13.390;2022-09-27T14:22:25;99071.60;;;11.39;100.00
56681;BME280;42558;52.388;13.390;2022-09-27T14:24:56;99071.83;;;11.46;100.00
56681;BME280;42558;52.388;13.390;2022-09-27T14:27:27;99077.27;;;11.37;100.00
56681;BME280;42558;52.388;13.390;2022-09-27T14:30:07;99074.02;;;11.31;100.00
56681;BME280;42558;52.388;13.390;2022-09-27T14:32:50;99080.52;;;11.32;100.00
56681;BME280;42558;52.388;13.390;2022-09-27T14:35:21;99082.38;;;11.36;100.00
56681;BME280;42558;52.388;13.390;2022-09-27T14:38:12;99084.95;;;11.40;100.00
56681;BME280;42558;52.388;13.390;2022-09-27T14:41:02;99087.95;;;11.39;100.00
56681;BME280;42558;52.388;13.390;2022-09-27T14:43:30;99091.09;;;11.30;100.00
56681;BME280;42558;52.388;13.390;2022-09-27T14:46:03;99093.48;;;11.24;100.00
56681;BME280;42558;52.388;13.390;2022-09-27T14:48:37;99095.91;;;11.26;100.00
56681;BME280;42558;52.388;13.390;2022-09-27T14:56:19;99098.15;;;11.60;100.00
56681;BME280;42558;52.388;13.390;2022-09-27T14:58:57;99102.46;;;11.65;100.00
56681;BME280;42558;52.388;13.390;2022-09-27T15:01:28;99106.46;;;11.68;100.00
56681;BME280;42558;52.388;13.390;2022-09-27T15:04:12;99107.68;;;11.69;100.00
56681;BME280;42558;52.388;13.390;2022-09-27T15:06:41;99106.89;;;11.54;100.00
56681;BME280;42558;52.388;13.390;2022-09-27T15:09:12;99116.55;;;11.44;100.00
56681;BME280;42558;52.388;13.390;2022-09-27T15:11:41;99117.95;;;11.34;100.00
56681;BME280;42558;52.388;13.390;2022-09-27T15:14:14;99121.83;;;11.22;100.00
56681;BME280;42558;52.388;13.390;2022-09-27T15:16:45;99118.85;;;11.22;100.00
56681;BME280;42558;52.388;13.390;2022-09-27T15:21:47;99121.98;;;11.23;100.00
56681;BME280;42558;52.388;13.390;2022-09-27T15:27:33;99126.84;;;11.05;100.00
56681;BME280;42558;52.388;13.390;2022-09-27T15:30:00;99127.54;;;10.93;100.00
56681;BME280;42558;52.388;13.390;2022-09-27T15:32:28;99127.30;;;10.98;100.00
56681;BME280;42558;52.388;13.390;2022-09-27T15:34:56;99131.83;;;11.01;100.00
56681;BME280;42558;52.388;13.390;2022-09-27T15:37:37;99131.67;;;10.99;100.00
56681;BME280;42558;52.388;13.390;2022-09-27T15:43:28;99125.93;;;10.82;100.00